Airfield :
LOGIN :

Register | Disclaimer

   EN    FR    IT 

 










Legend :    VFR   Marginal VFR   IFR   Intensive IFR   Very Intensive IFR
Visi :
Ceiling :
>= 8 km
>= 3000ft
5 to 8 km
1000 to 3000 ft
1500m to 5 km
500 to 1000 ft
800 to 1500m
200 to 500 ft
< 800m
< 200 ft
Symbols :   Thunderstorms  Fog  Heavy snow  Heavy precipitations  Wind > 20 kt
SIGMETs :     Misc.  Thunderstorms  Icing  Turbulence  Mountain Waves  Volcanic Ashes






- Airport Elevation : 26 ft
- IATA code : GLA


EGPF - Glasgow

CURRENT METAR :
  • 051450Z AUTO 11011KT 9999 -RA //////TCU 20/11 Q0997

EXPIRED METARs :
  • 051420Z AUTO 08006KT 9999 -RA SCT049/// //////TCU 20/12 Q0998
  • 051350Z AUTO 10007KT 9999 -RA SCT029/// SCT040/// //////TCU 19/12 Q0998
  • 051320Z AUTO 12012KT 9999 -RA SCT049/// //////TCU 20/11 Q0999
  • 051250Z AUTO 12014KT 9999 //////TCU 21/10 Q0999
  • 051220Z AUTO 13014KT 100V160 9999 NCD 20/10 Q0999
  • 051150Z AUTO 13014KT 9999 -RA FEW047 20/10 Q0999

TAF TAF EGPF
Valid from the 05 at 12:00 until the 06 at 12:00 UTC


051058Z 0512/0612 13010KT 9999 SCT030
TEMPO 0512/0612 6000 RA SHRA BKN014
PROB30
TEMPO 0512/0521 10015G25KT 3000 +RA RADZ BKN008
PROB40
TEMPO 0521/0612 2500 +TSRAGS BKN006 BKN015CB
ATIS : +44 141 887 7449



MET'MAP, your aeronautical weather chart ! - Copyright ORBIFLY December 2007 - Disclaimer

ORBIFLY MET'MAP TEAM :

Programming & Development : Alexandra Zaïnal
Concept & original design : Baudouin d'Aumeries
Assistance for programming : Marc-Olivier Méhu
Technical & hardware support : Manuel Goepfert

Contact : metmap@orbifly.com




SOURCES & CREDITS :

   NOAA